SEKCJA WYDRUKÓW, pokaż »

TAF EPRA 212030Z 2121/2206 10008KT CAVOK=

TAF EPSY 212030Z 2121/2206 VRB03KT CAVOK=

TAF AMD EPZG 212103Z 2121/2206 CNL=